createdAt,value
2016-12-25T00:00:12.453Z,966.88
2016-12-25T00:01:13.553Z,966.88
2016-12-25T00:02:14.103Z,966.89
2016-12-25T00:03:14.261Z,966.88
2016-12-25T00:04:13.696Z,966.88
2016-12-25T00:05:14.063Z,966.87
2016-12-25T00:06:16.111Z,966.94
2016-12-25T00:07:13.047Z,966.89
2016-12-25T00:08:14.068Z,966.91
2016-12-25T00:09:12.504Z,966.91
2016-12-25T00:10:13.734Z,967.00
2016-12-25T00:11:13.037Z,967.00
2016-12-25T00:12:13.228Z,966.89
2016-12-25T00:13:13.726Z,966.96
2016-12-25T00:14:13.440Z,966.97
2016-12-25T00:15:13.892Z,966.92
2016-12-25T00:16:13.503Z,966.88
2016-12-25T00:17:13.040Z,966.89
2016-12-25T00:18:15.185Z,966.91
2016-12-25T00:19:13.381Z,966.85
2016-12-25T00:20:15.505Z,966.92
2016-12-25T00:21:16.448Z,966.91
2016-12-25T00:22:15.457Z,966.91
2016-12-25T00:23:14.346Z,966.92
2016-12-25T00:24:11.748Z,966.95
2016-12-25T00:25:13.677Z,966.91
2016-12-25T00:26:13.369Z,966.86
2016-12-25T00:27:13.081Z,966.82
2016-12-25T00:28:13.144Z,966.77
2016-12-25T00:29:13.078Z,966.79
2016-12-25T00:30:10.829Z,966.83
2016-12-25T00:31:14.039Z,966.86
2016-12-25T00:32:13.665Z,966.83
2016-12-25T00:33:13.097Z,966.87
2016-12-25T00:34:12.735Z,966.82
2016-12-25T00:35:13.286Z,966.85
2016-12-25T00:36:13.473Z,966.85
2016-12-25T00:37:13.920Z,966.89
2016-12-25T00:38:13.288Z,966.92
2016-12-25T00:39:13.292Z,966.91
2016-12-25T00:40:15.680Z,966.81
2016-12-25T00:41:12.710Z,966.92
2016-12-25T00:42:13.675Z,966.91
2016-12-25T00:43:13.245Z,966.86
2016-12-25T00:44:12.713Z,966.83
2016-12-25T00:45:14.145Z,966.80
2016-12-25T00:46:13.209Z,966.81
2016-12-25T00:47:12.659Z,966.81
2016-12-25T00:48:13.881Z,966.81
2016-12-25T00:49:12.773Z,966.82
2016-12-25T00:50:12.797Z,966.86
2016-12-25T00:51:14.651Z,966.80
2016-12-25T00:52:12.934Z,966.90
2016-12-25T00:53:12.539Z,966.84
2016-12-25T00:54:12.957Z,966.80
2016-12-25T00:55:10.273Z,966.72
2016-12-25T00:56:12.940Z,966.67
2016-12-25T00:57:13.650Z,966.74
2016-12-25T00:58:13.039Z,966.62
2016-12-25T00:59:13.066Z,966.68
2016-12-25T01:00:13.966Z,966.66
2016-12-25T01:01:13.226Z,966.80
2016-12-25T01:02:13.814Z,966.81
2016-12-25T01:03:13.254Z,966.85
2016-12-25T01:04:12.761Z,966.86
2016-12-25T01:05:13.084Z,966.77
2016-12-25T01:06:13.650Z,966.81
2016-12-25T01:07:13.751Z,966.82
2016-12-25T01:08:19.333Z,966.88
2016-12-25T01:09:13.831Z,966.89
2016-12-25T01:10:13.002Z,966.84
2016-12-25T01:11:13.032Z,966.84
2016-12-25T01:12:12.961Z,966.81
2016-12-25T01:13:13.834Z,966.83
2016-12-25T01:14:16.948Z,966.83
2016-12-25T01:15:12.695Z,966.74
2016-12-25T01:16:15.678Z,966.73
2016-12-25T01:17:14.397Z,966.75
2016-12-25T01:18:15.446Z,966.68
2016-12-25T01:19:14.503Z,966.68
2016-12-25T01:20:15.075Z,966.65
2016-12-25T01:21:21.649Z,966.63
2016-12-25T01:22:13.637Z,966.63
2016-12-25T01:23:12.198Z,966.61
2016-12-25T01:24:22.222Z,966.58
2016-12-25T01:25:13.310Z,966.57
2016-12-25T01:26:18.090Z,966.57
2016-12-25T01:27:13.635Z,966.58
2016-12-25T01:28:13.597Z,966.51
2016-12-25T01:29:13.726Z,966.57
2016-12-25T01:30:21.176Z,966.55
2016-12-25T01:31:14.480Z,966.57
2016-12-25T01:32:14.687Z,966.47
2016-12-25T01:33:12.031Z,966.53
2016-12-25T01:34:15.664Z,966.54
2016-12-25T01:35:15.330Z,966.53
2016-12-25T01:36:15.439Z,966.59
2016-12-25T01:37:12.606Z,966.64
2016-12-25T01:38:13.428Z,966.63
2016-12-25T01:39:14.093Z,966.59
2016-12-25T01:40:12.922Z,966.57
2016-12-25T01:41:15.167Z,966.62
2016-12-25T01:42:12.761Z,966.59
2016-12-25T01:43:12.796Z,966.55
2016-12-25T01:44:13.642Z,966.60
2016-12-25T01:45:14.200Z,966.57
2016-12-25T01:46:13.939Z,966.66
2016-12-25T01:47:15.309Z,966.68
2016-12-25T01:48:13.016Z,966.62
2016-12-25T01:49:14.003Z,966.62
2016-12-25T01:50:14.872Z,966.72
2016-12-25T01:51:14.180Z,966.65
2016-12-25T01:52:13.959Z,966.68
2016-12-25T01:53:15.306Z,966.67
2016-12-25T01:54:13.914Z,966.69
2016-12-25T01:55:14.851Z,966.72
2016-12-25T01:56:14.128Z,966.69
2016-12-25T01:57:13.127Z,966.75
2016-12-25T01:58:14.982Z,966.66
2016-12-25T01:59:13.441Z,966.65
2016-12-25T02:00:14.804Z,966.68
2016-12-25T02:01:14.674Z,966.66
2016-12-25T02:02:12.995Z,966.70
2016-12-25T02:03:13.739Z,966.74
2016-12-25T02:04:14.664Z,966.79
2016-12-25T02:05:13.864Z,966.85
2016-12-25T02:06:14.691Z,966.84
2016-12-25T02:07:13.437Z,966.83
2016-12-25T02:08:15.380Z,966.84
2016-12-25T02:09:14.622Z,966.82
2016-12-25T02:10:12.253Z,966.84
2016-12-25T02:11:14.538Z,966.84
2016-12-25T02:12:15.642Z,966.86
2016-12-25T02:13:15.868Z,966.89
2016-12-25T02:14:13.942Z,966.88
2016-12-25T02:15:12.932Z,966.91
2016-12-25T02:16:15.231Z,966.87
2016-12-25T02:17:13.466Z,966.87
2016-12-25T02:18:14.711Z,966.83
2016-12-25T02:19:14.589Z,966.83
2016-12-25T02:20:13.143Z,966.86
2016-12-25T02:21:14.355Z,966.84
2016-12-25T02:22:14.295Z,966.74
2016-12-25T02:23:12.560Z,966.75
2016-12-25T02:24:13.111Z,966.78
2016-12-25T02:25:14.625Z,966.79
2016-12-25T02:26:12.159Z,966.71
2016-12-25T02:27:12.163Z,966.70
2016-12-25T02:28:13.671Z,966.75
2016-12-25T02:29:13.364Z,966.70
2016-12-25T02:30:13.230Z,966.69
2016-12-25T02:31:13.257Z,966.71
2016-12-25T02:32:15.776Z,966.63
2016-12-25T02:33:13.844Z,966.72
2016-12-25T02:34:14.620Z,966.68
2016-12-25T02:35:15.375Z,966.69
2016-12-25T02:36:14.355Z,966.72
2016-12-25T02:37:13.288Z,966.74
2016-12-25T02:38:15.541Z,966.75
2016-12-25T02:39:13.279Z,966.67
2016-12-25T02:40:12.624Z,966.67
2016-12-25T02:41:15.423Z,966.65
2016-12-25T02:42:23.479Z,966.67
2016-12-25T02:43:14.016Z,966.55
2016-12-25T02:44:14.857Z,966.64
2016-12-25T02:45:29.218Z,966.61
2016-12-25T02:46:19.925Z,966.65
2016-12-25T02:47:15.043Z,966.71
2016-12-25T02:48:15.131Z,966.74
2016-12-25T02:49:13.529Z,966.72
2016-12-25T02:50:14.208Z,966.67
2016-12-25T02:51:15.210Z,966.62
2016-12-25T02:52:15.012Z,966.68
2016-12-25T02:53:13.051Z,966.64
2016-12-25T02:54:14.264Z,966.61
2016-12-25T02:55:13.431Z,966.64
2016-12-25T02:56:13.262Z,966.60
2016-12-25T02:57:13.434Z,966.55
2016-12-25T02:58:13.371Z,966.49
2016-12-25T02:59:13.124Z,966.42
2016-12-25T03:00:13.302Z,966.43
2016-12-25T03:01:11.943Z,966.33
2016-12-25T03:02:12.193Z,966.37
2016-12-25T03:03:14.675Z,966.28
2016-12-25T03:04:12.964Z,966.32
2016-12-25T03:05:12.892Z,966.28
2016-12-25T03:06:13.664Z,966.34
2016-12-25T03:07:14.170Z,966.36
2016-12-25T03:08:12.654Z,966.28
2016-12-25T03:09:12.219Z,966.22
2016-12-25T03:10:14.222Z,966.25
2016-12-25T03:11:14.167Z,966.24
2016-12-25T03:12:13.509Z,966.32
2016-12-25T03:13:13.478Z,966.30
2016-12-25T03:14:13.555Z,966.33
2016-12-25T03:15:13.320Z,966.34
2016-12-25T03:16:13.754Z,966.38
2016-12-25T03:17:12.556Z,966.31
2016-12-25T03:18:12.937Z,966.33
2016-12-25T03:19:11.555Z,966.30
2016-12-25T03:20:19.824Z,966.32
2016-12-25T03:21:12.562Z,966.24
2016-12-25T03:22:13.866Z,966.23
2016-12-25T03:23:12.772Z,966.23
2016-12-25T03:24:12.582Z,966.20
2016-12-25T03:25:13.967Z,966.26
2016-12-25T03:26:13.062Z,966.26
2016-12-25T03:27:13.876Z,966.29
2016-12-25T03:28:10.974Z,966.23
2016-12-25T03:29:13.317Z,966.17
2016-12-25T03:30:13.103Z,966.17
2016-12-25T03:31:13.225Z,966.11
2016-12-25T03:32:13.087Z,966.14
2016-12-25T03:33:12.519Z,966.12
2016-12-25T03:34:13.685Z,966.08
2016-12-25T03:35:13.617Z,966.13
2016-12-25T03:36:14.024Z,966.14
2016-12-25T03:37:12.571Z,966.19
2016-12-25T03:38:13.787Z,966.15
2016-12-25T03:39:13.139Z,966.23
2016-12-25T03:40:14.858Z,966.21
2016-12-25T03:41:12.699Z,966.27
2016-12-25T03:42:12.348Z,966.29
2016-12-25T03:43:16.296Z,966.30
2016-12-25T03:44:13.322Z,966.23
2016-12-25T03:45:11.872Z,966.25
2016-12-25T03:46:12.789Z,966.28
2016-12-25T03:47:13.434Z,966.30
2016-12-25T03:48:13.447Z,966.21
2016-12-25T03:49:14.087Z,966.20
2016-12-25T03:50:15.255Z,966.18
2016-12-25T03:51:13.689Z,966.17
2016-12-25T03:52:13.167Z,966.12
2016-12-25T03:53:13.850Z,966.23
2016-12-25T03:54:12.264Z,965.99
2016-12-25T03:55:10.857Z,966.04
2016-12-25T03:56:13.389Z,965.89
2016-12-25T03:57:13.523Z,966.01
2016-12-25T03:58:13.450Z,965.91
2016-12-25T03:59:21.131Z,966.12
2016-12-25T04:00:13.809Z,965.92
2016-12-25T04:01:15.731Z,965.95
2016-12-25T04:02:13.424Z,965.92
2016-12-25T04:03:11.049Z,965.95
2016-12-25T04:04:14.178Z,965.93
2016-12-25T04:05:24.082Z,966.13
2016-12-25T04:06:13.538Z,966.07
2016-12-25T04:07:12.833Z,966.16
2016-12-25T04:08:12.838Z,966.23
2016-12-25T04:09:11.519Z,966.17
2016-12-25T04:10:13.454Z,966.28
2016-12-25T04:11:13.522Z,966.24
2016-12-25T04:12:11.334Z,966.24
2016-12-25T04:13:13.163Z,966.20
2016-12-25T04:14:14.846Z,966.30
2016-12-25T04:15:14.842Z,966.21
2016-12-25T04:16:12.255Z,966.27
2016-12-25T04:17:12.857Z,966.16
2016-12-25T04:18:14.882Z,966.06
2016-12-25T04:19:13.046Z,966.00
2016-12-25T04:20:13.681Z,966.13
2016-12-25T04:21:14.702Z,966.13
2016-12-25T04:22:14.392Z,966.14
2016-12-25T04:23:13.647Z,966.14
2016-12-25T04:24:13.886Z,966.02
2016-12-25T04:25:10.339Z,966.07
2016-12-25T04:26:14.337Z,966.13
2016-12-25T04:27:13.194Z,966.08
2016-12-25T04:28:13.876Z,966.05
2016-12-25T04:29:12.375Z,966.31
2016-12-25T04:30:11.992Z,966.18
2016-12-25T04:31:12.343Z,966.24
2016-12-25T04:32:13.153Z,966.14
2016-12-25T04:33:13.069Z,966.17
2016-12-25T04:34:12.482Z,966.20
2016-12-25T04:35:13.520Z,966.15
2016-12-25T04:36:11.279Z,966.16
2016-12-25T04:37:13.982Z,966.10
2016-12-25T04:38:13.865Z,966.05
2016-12-25T04:39:12.698Z,965.95
2016-12-25T04:40:13.584Z,965.90
2016-12-25T04:41:14.603Z,965.88
2016-12-25T04:42:13.736Z,965.89
2016-12-25T04:43:14.497Z,965.92
2016-12-25T04:44:12.929Z,965.97
2016-12-25T04:45:12.908Z,966.08
2016-12-25T04:46:12.649Z,966.03
2016-12-25T04:47:12.668Z,965.99
2016-12-25T04:48:15.447Z,965.92
2016-12-25T04:49:13.132Z,965.95
2016-12-25T04:50:13.965Z,965.92
2016-12-25T04:51:12.418Z,965.89
2016-12-25T04:52:11.428Z,965.83
2016-12-25T04:53:11.752Z,965.75
2016-12-25T04:54:14.419Z,965.74
2016-12-25T04:55:13.367Z,965.75
2016-12-25T04:56:13.316Z,965.76
2016-12-25T04:57:13.448Z,965.76
2016-12-25T04:58:13.521Z,965.74
2016-12-25T04:59:12.064Z,965.82
2016-12-25T05:00:13.698Z,965.83
2016-12-25T05:01:13.698Z,965.84
2016-12-25T05:02:12.242Z,965.83
2016-12-25T05:03:13.797Z,965.93
2016-12-25T05:04:13.224Z,965.94
2016-12-25T05:05:14.008Z,965.97
2016-12-25T05:06:14.616Z,965.94
2016-12-25T05:07:13.638Z,965.94
2016-12-25T05:08:12.087Z,965.94
2016-12-25T05:09:13.039Z,966.03
2016-12-25T05:10:11.448Z,966.00
2016-12-25T05:11:15.424Z,966.01
2016-12-25T05:12:13.695Z,966.02
2016-12-25T05:13:13.711Z,966.03
2016-12-25T05:14:13.879Z,966.03
2016-12-25T05:15:12.921Z,966.06
2016-12-25T05:16:12.487Z,966.04
2016-12-25T05:17:13.633Z,966.04
2016-12-25T05:18:13.978Z,966.08
2016-12-25T05:19:14.989Z,966.06
2016-12-25T05:20:22.117Z,966.07
2016-12-25T05:21:19.093Z,966.13
2016-12-25T05:22:18.611Z,966.16
2016-12-25T05:23:31.559Z,966.18
2016-12-25T05:24:13.655Z,966.21
2016-12-25T05:25:16.936Z,966.20
2016-12-25T05:26:16.952Z,966.16
2016-12-25T05:27:14.261Z,966.13
2016-12-25T05:28:12.647Z,966.12
2016-12-25T05:29:20.223Z,966.07
2016-12-25T05:30:14.282Z,966.01
2016-12-25T05:31:13.944Z,966.12
2016-12-25T05:32:13.261Z,966.04
2016-12-25T05:33:13.633Z,965.98
2016-12-25T05:34:13.453Z,965.93
2016-12-25T05:35:13.248Z,965.95
2016-12-25T05:36:12.890Z,965.89
2016-12-25T05:37:12.401Z,965.85
2016-12-25T05:38:12.803Z,965.87
2016-12-25T05:39:12.515Z,965.85
2016-12-25T05:40:11.941Z,965.85
2016-12-25T05:41:12.359Z,965.85
2016-12-25T05:42:13.227Z,965.89
2016-12-25T05:43:13.192Z,966.02
2016-12-25T05:44:13.235Z,966.09
2016-12-25T05:45:13.269Z,966.12
2016-12-25T05:46:11.215Z,966.15
2016-12-25T05:47:13.383Z,966.16
2016-12-25T05:48:15.320Z,966.21
2016-12-25T05:49:14.370Z,966.22
2016-12-25T05:50:12.661Z,966.22
2016-12-25T05:51:13.153Z,966.21
2016-12-25T05:52:13.161Z,966.27
2016-12-25T05:53:13.927Z,966.26
2016-12-25T05:54:12.741Z,966.29
2016-12-25T05:55:13.133Z,966.33
2016-12-25T05:56:12.508Z,966.39
2016-12-25T05:57:13.112Z,966.48
2016-12-25T05:58:12.913Z,966.50
2016-12-25T05:59:12.214Z,966.58
2016-12-25T06:00:15.232Z,966.63
2016-12-25T06:01:12.718Z,966.65
2016-12-25T06:02:13.549Z,966.68
2016-12-25T06:03:13.098Z,966.57
2016-12-25T06:04:13.302Z,966.51
2016-12-25T06:05:13.343Z,966.41
2016-12-25T06:06:12.748Z,966.48
2016-12-25T06:07:12.653Z,966.52
2016-12-25T06:08:12.137Z,966.56
2016-12-25T06:09:13.318Z,966.60
2016-12-25T06:10:12.749Z,966.61
2016-12-25T06:11:14.980Z,966.57
2016-12-25T06:12:12.621Z,966.69
2016-12-25T06:13:13.561Z,966.68
2016-12-25T06:14:12.121Z,966.68
2016-12-25T06:15:14.834Z,966.74
2016-12-25T06:16:12.526Z,966.66
2016-12-25T06:17:13.845Z,966.69
2016-12-25T06:18:12.655Z,966.66
2016-12-25T06:19:13.536Z,966.69
2016-12-25T06:20:12.865Z,966.65
2016-12-25T06:21:12.355Z,966.66
2016-12-25T06:22:13.233Z,966.62
2016-12-25T06:23:14.223Z,966.68
2016-12-25T06:24:12.780Z,966.61
2016-12-25T06:25:12.790Z,966.64
2016-12-25T06:26:12.233Z,966.63
2016-12-25T06:27:11.282Z,966.63
2016-12-25T06:28:11.931Z,966.62
2016-12-25T06:29:12.159Z,966.57
2016-12-25T06:30:12.538Z,966.49
2016-12-25T06:31:12.837Z,966.46
2016-12-25T06:32:12.499Z,966.40
2016-12-25T06:33:13.361Z,966.36
2016-12-25T06:34:13.296Z,966.39
2016-12-25T06:35:14.103Z,966.35
2016-12-25T06:36:12.591Z,966.37
2016-12-25T06:37:13.403Z,966.40
2016-12-25T06:38:14.640Z,966.36
2016-12-25T06:39:14.208Z,966.35
2016-12-25T06:40:13.436Z,966.28
2016-12-25T06:41:13.587Z,966.39
2016-12-25T06:42:13.140Z,966.34
2016-12-25T06:43:12.542Z,966.31
2016-12-25T06:44:14.520Z,966.39
2016-12-25T06:45:14.656Z,966.34
2016-12-25T06:46:25.482Z,966.34
2016-12-25T06:47:13.315Z,966.37
2016-12-25T06:48:18.726Z,966.32
2016-12-25T06:49:14.673Z,966.35
2016-12-25T06:50:30.057Z,966.35
2016-12-25T06:51:13.557Z,966.34
2016-12-25T06:52:13.050Z,966.30
2016-12-25T06:53:12.727Z,966.29
2016-12-25T06:54:14.556Z,966.33
2016-12-25T06:55:13.181Z,966.30
2016-12-25T06:56:11.811Z,966.30
2016-12-25T06:57:13.918Z,966.36
2016-12-25T06:58:12.541Z,966.33
2016-12-25T06:59:14.355Z,966.40
2016-12-25T07:00:12.824Z,966.44
2016-12-25T07:01:12.334Z,966.48
2016-12-25T07:02:12.693Z,966.53
2016-12-25T07:03:15.667Z,966.56
2016-12-25T07:04:14.262Z,966.54
2016-12-25T07:05:13.176Z,966.49
2016-12-25T07:06:12.684Z,966.45
2016-12-25T07:07:13.463Z,966.43
2016-12-25T07:08:13.038Z,966.41
2016-12-25T07:09:13.708Z,966.40
2016-12-25T07:10:13.751Z,966.43
2016-12-25T07:11:12.184Z,966.46
2016-12-25T07:12:12.519Z,966.47
2016-12-25T07:13:11.347Z,966.49
2016-12-25T07:14:12.506Z,966.44
2016-12-25T07:15:12.929Z,966.50
2016-12-25T07:16:15.692Z,966.46
2016-12-25T07:17:14.213Z,966.44
2016-12-25T07:18:12.943Z,966.51
2016-12-25T07:19:12.410Z,966.46
2016-12-25T07:20:16.239Z,966.44
2016-12-25T07:21:13.060Z,966.46
2016-12-25T07:22:14.148Z,966.49
2016-12-25T07:23:11.022Z,966.49
2016-12-25T07:24:13.144Z,966.46
2016-12-25T07:25:15.068Z,966.48
2016-12-25T07:26:12.539Z,966.44
2016-12-25T07:27:13.014Z,966.46
2016-12-25T07:28:12.745Z,966.47
2016-12-25T07:29:13.500Z,966.49
2016-12-25T07:30:13.129Z,966.56
2016-12-25T07:31:14.789Z,966.52
2016-12-25T07:32:12.613Z,966.57
2016-12-25T07:33:12.956Z,966.61
2016-12-25T07:34:16.999Z,966.58
2016-12-25T07:35:12.458Z,966.56
2016-12-25T07:36:13.197Z,966.54
2016-12-25T07:37:13.286Z,966.50
2016-12-25T07:38:13.136Z,966.49
2016-12-25T07:39:12.654Z,966.54
2016-12-25T07:40:14.096Z,966.51
2016-12-25T07:41:16.020Z,966.46
2016-12-25T07:42:13.813Z,966.44
2016-12-25T07:43:13.017Z,966.46
2016-12-25T07:44:12.932Z,966.36
2016-12-25T07:45:12.893Z,966.29
2016-12-25T07:46:12.961Z,966.21
2016-12-25T07:47:12.452Z,966.20
2016-12-25T07:48:14.046Z,966.34
2016-12-25T07:49:12.712Z,966.39
2016-12-25T07:50:13.419Z,966.42
2016-12-25T07:51:14.503Z,966.46
2016-12-25T07:52:14.503Z,966.47
2016-12-25T07:53:12.580Z,966.43
2016-12-25T07:54:12.960Z,966.43
2016-12-25T07:55:13.302Z,966.41
2016-12-25T07:56:13.550Z,966.36
2016-12-25T07:57:13.593Z,966.37
2016-12-25T07:58:13.785Z,966.31
2016-12-25T07:59:12.159Z,966.29
2016-12-25T08:00:12.592Z,966.29
2016-12-25T08:01:12.915Z,966.12
2016-12-25T08:02:13.718Z,966.12
2016-12-25T08:03:13.553Z,966.04
2016-12-25T08:04:12.950Z,966.04
2016-12-25T08:05:12.718Z,965.98
2016-12-25T08:06:19.461Z,966.03
2016-12-25T08:07:18.560Z,966.07
2016-12-25T08:08:12.680Z,966.02
2016-12-25T08:09:22.178Z,966.06
2016-12-25T08:10:13.413Z,966.08
2016-12-25T08:11:13.696Z,966.00
2016-12-25T08:12:12.850Z,966.03
2016-12-25T08:13:13.198Z,966.04
2016-12-25T08:14:13.766Z,966.12
2016-12-25T08:15:14.025Z,966.21
2016-12-25T08:16:19.681Z,966.19
2016-12-25T08:17:28.330Z,966.16
2016-12-25T08:18:12.949Z,966.19
2016-12-25T08:19:12.891Z,966.23
2016-12-25T08:20:12.715Z,966.27
2016-12-25T08:21:13.228Z,966.24
2016-12-25T08:22:12.731Z,966.22
2016-12-25T08:23:28.093Z,966.24
2016-12-25T08:24:13.039Z,966.21
2016-12-25T08:25:15.892Z,966.23
2016-12-25T08:26:12.771Z,966.20
2016-12-25T08:27:12.372Z,966.17
2016-12-25T08:28:12.807Z,966.16
2016-12-25T08:29:12.478Z,966.16
2016-12-25T08:30:14.210Z,966.25
2016-12-25T08:31:13.135Z,966.18
2016-12-25T08:32:12.609Z,966.21
2016-12-25T08:33:13.758Z,966.12
2016-12-25T08:34:12.150Z,966.15
2016-12-25T08:35:11.426Z,966.19
2016-12-25T08:36:13.209Z,966.28
2016-12-25T08:37:13.103Z,966.26
2016-12-25T08:38:12.615Z,966.30
2016-12-25T08:39:13.463Z,966.31
2016-12-25T08:40:12.793Z,966.38
2016-12-25T08:41:12.462Z,966.29
2016-12-25T08:42:13.638Z,966.35
2016-12-25T08:43:13.728Z,966.35
2016-12-25T08:44:12.957Z,966.34
2016-12-25T08:45:13.908Z,966.41
2016-12-25T08:46:12.586Z,966.38
2016-12-25T08:47:13.018Z,966.39
2016-12-25T08:48:13.180Z,966.43
2016-12-25T08:49:12.587Z,966.46
2016-12-25T08:50:13.226Z,966.44
2016-12-25T08:51:12.616Z,966.36
2016-12-25T08:52:13.468Z,966.36
2016-12-25T08:53:13.620Z,966.45
2016-12-25T08:54:13.561Z,966.37
2016-12-25T08:55:12.805Z,966.46
2016-12-25T08:56:13.558Z,966.52
2016-12-25T08:57:12.940Z,966.59
2016-12-25T08:58:12.933Z,966.54
2016-12-25T08:59:12.992Z,966.61
2016-12-25T09:00:13.052Z,966.59
2016-12-25T09:01:12.748Z,966.65
2016-12-25T09:02:14.478Z,966.61
2016-12-25T09:03:13.411Z,966.60
2016-12-25T09:04:13.178Z,966.64
2016-12-25T09:05:12.904Z,966.64
2016-12-25T09:06:12.766Z,966.62
2016-12-25T09:07:14.572Z,966.60
2016-12-25T09:08:10.875Z,966.61
2016-12-25T09:09:18.839Z,966.55
2016-12-25T09:10:12.765Z,966.56
2016-12-25T09:11:11.499Z,966.54
2016-12-25T09:12:12.836Z,966.51
2016-12-25T09:13:12.794Z,966.48
2016-12-25T09:14:18.348Z,966.45
2016-12-25T09:15:11.059Z,966.53
2016-12-25T09:16:11.176Z,966.34
2016-12-25T09:17:12.613Z,966.45
2016-12-25T09:18:13.422Z,966.36
2016-12-25T09:19:13.374Z,966.31
2016-12-25T09:20:13.575Z,966.30
2016-12-25T09:21:12.066Z,966.27
2016-12-25T09:22:13.643Z,966.26
2016-12-25T09:23:15.912Z,966.17
2016-12-25T09:24:12.805Z,966.09
2016-12-25T09:25:12.894Z,966.23
2016-12-25T09:26:12.217Z,966.13
2016-12-25T09:27:12.505Z,966.22
2016-12-25T09:28:15.534Z,966.14
2016-12-25T09:29:12.879Z,966.13
2016-12-25T09:30:14.603Z,966.16
2016-12-25T09:31:16.096Z,966.19
2016-12-25T09:32:12.684Z,966.14
2016-12-25T09:33:13.394Z,966.18
2016-12-25T09:34:12.997Z,966.20
2016-12-25T09:35:13.743Z,966.03
2016-12-25T09:36:15.471Z,966.20
2016-12-25T09:37:12.815Z,966.25
2016-12-25T09:38:16.189Z,966.22
2016-12-25T09:39:31.161Z,966.16
2016-12-25T09:40:14.429Z,966.18
2016-12-25T09:41:15.526Z,966.15
2016-12-25T09:42:22.753Z,966.12
2016-12-25T09:43:12.804Z,966.09
2016-12-25T09:44:12.380Z,966.03
2016-12-25T09:45:21.255Z,965.98
2016-12-25T09:46:13.521Z,966.04
2016-12-25T09:47:13.408Z,966.04
2016-12-25T09:48:15.345Z,966.12
2016-12-25T09:49:12.778Z,966.06
2016-12-25T09:50:12.973Z,966.05
2016-12-25T09:51:12.912Z,966.08
2016-12-25T09:52:12.993Z,966.09
2016-12-25T09:53:12.747Z,966.07
2016-12-25T09:54:14.413Z,966.00
2016-12-25T09:55:14.307Z,966.00
2016-12-25T09:56:12.773Z,965.99
2016-12-25T09:57:14.569Z,965.97
2016-12-25T09:58:13.056Z,965.91
2016-12-25T09:59:13.833Z,965.95
2016-12-25T10:00:14.344Z,965.91
2016-12-25T10:01:13.419Z,965.81
2016-12-25T10:02:13.206Z,965.82
2016-12-25T10:03:13.370Z,965.83
2016-12-25T10:04:12.696Z,965.88
2016-12-25T10:05:13.491Z,965.88
2016-12-25T10:06:12.254Z,965.95
2016-12-25T10:07:12.392Z,965.90
2016-12-25T10:08:12.718Z,965.99
2016-12-25T10:09:13.036Z,965.95
2016-12-25T10:10:12.999Z,965.99
2016-12-25T10:11:18.388Z,965.92
2016-12-25T10:12:13.337Z,965.91
2016-12-25T10:13:12.961Z,966.05
2016-12-25T10:14:12.223Z,966.05
2016-12-25T10:15:13.562Z,966.04
2016-12-25T10:16:13.418Z,966.04
2016-12-25T10:17:12.164Z,966.05
2016-12-25T10:18:11.395Z,965.98
2016-12-25T10:19:13.089Z,966.00
2016-12-25T10:20:14.918Z,965.98
2016-12-25T10:21:12.408Z,966.03
2016-12-25T10:22:12.845Z,965.94
2016-12-25T10:23:11.741Z,965.84
2016-12-25T10:24:12.716Z,965.81
2016-12-25T10:25:14.497Z,965.85
2016-12-25T10:26:13.614Z,965.77
2016-12-25T10:27:14.336Z,965.84
2016-12-25T10:28:14.026Z,965.75
2016-12-25T10:29:12.447Z,965.69
2016-12-25T10:30:12.830Z,965.67
2016-12-25T10:31:11.480Z,965.63
2016-12-25T10:32:12.118Z,965.66
2016-12-25T10:33:12.415Z,965.76
2016-12-25T10:34:13.535Z,965.80
2016-12-25T10:35:13.125Z,965.81
2016-12-25T10:36:12.650Z,965.76
2016-12-25T10:37:11.906Z,965.73
2016-12-25T10:38:13.517Z,965.75
2016-12-25T10:39:13.389Z,965.74
2016-12-25T10:40:13.184Z,965.75
2016-12-25T10:41:14.460Z,965.76
2016-12-25T10:42:12.824Z,965.69
2016-12-25T10:43:14.564Z,965.69
2016-12-25T10:44:13.721Z,965.64
2016-12-25T10:45:15.089Z,965.67
2016-12-25T10:46:12.524Z,965.67
2016-12-25T10:47:13.505Z,965.59
2016-12-25T10:48:13.258Z,965.60
2016-12-25T10:49:13.394Z,965.47
2016-12-25T10:50:13.276Z,965.44
2016-12-25T10:51:13.182Z,965.41
2016-12-25T10:52:12.757Z,965.29
2016-12-25T10:53:13.565Z,965.31
2016-12-25T10:54:14.326Z,965.31
2016-12-25T10:55:12.719Z,965.26
2016-12-25T10:56:15.516Z,965.29
2016-12-25T10:57:13.697Z,965.37
2016-12-25T10:58:18.596Z,965.54
2016-12-25T10:59:14.411Z,965.53
2016-12-25T11:00:15.373Z,965.49
2016-12-25T11:01:12.839Z,965.46
2016-12-25T11:02:15.106Z,965.47
2016-12-25T11:03:12.957Z,965.34
2016-12-25T11:04:12.878Z,965.35
2016-12-25T11:05:13.480Z,965.39
2016-12-25T11:06:13.856Z,965.50
2016-12-25T11:07:13.977Z,965.53
2016-12-25T11:08:13.004Z,965.47
2016-12-25T11:09:20.839Z,965.54
2016-12-25T11:10:11.417Z,965.53
2016-12-25T11:11:12.757Z,965.53
2016-12-25T11:12:11.603Z,965.50
2016-12-25T11:13:15.256Z,965.53
2016-12-25T11:14:16.073Z,965.50
2016-12-25T11:15:12.987Z,965.43
2016-12-25T11:16:23.615Z,965.43
2016-12-25T11:17:38.539Z,965.35
2016-12-25T11:18:32.730Z,965.19
2016-12-25T11:19:12.472Z,965.14
2016-12-25T11:20:19.462Z,965.23
2016-12-25T11:21:13.438Z,965.13
2016-12-25T11:22:13.419Z,965.17
2016-12-25T11:23:13.415Z,965.15
2016-12-25T11:24:12.365Z,965.10
2016-12-25T11:25:12.297Z,965.22
2016-12-25T11:26:13.191Z,965.19
2016-12-25T11:27:12.871Z,965.13
2016-12-25T11:28:12.218Z,965.13
2016-12-25T11:29:12.785Z,965.14
2016-12-25T11:30:12.814Z,965.10
2016-12-25T11:31:12.797Z,965.15
2016-12-25T11:32:13.533Z,965.17
2016-12-25T11:33:13.190Z,965.14
2016-12-25T11:34:14.513Z,965.10
2016-12-25T11:35:14.321Z,965.13
2016-12-25T11:36:12.839Z,965.09
2016-12-25T11:37:13.467Z,965.11
2016-12-25T11:38:13.642Z,965.12
2016-12-25T11:39:14.684Z,965.16
2016-12-25T11:40:12.150Z,965.18
2016-12-25T11:41:12.521Z,965.18
2016-12-25T11:42:13.534Z,965.07
2016-12-25T11:43:11.199Z,965.06
2016-12-25T11:44:12.771Z,965.14
2016-12-25T11:45:20.007Z,965.18
2016-12-25T11:46:13.389Z,965.07
2016-12-25T11:47:14.020Z,965.11
2016-12-25T11:48:12.711Z,965.06
2016-12-25T11:49:13.562Z,965.04
2016-12-25T11:50:14.442Z,965.00
2016-12-25T11:51:14.270Z,964.93
2016-12-25T11:52:12.573Z,964.93
2016-12-25T11:53:11.978Z,964.93
2016-12-25T11:54:13.030Z,964.95
2016-12-25T11:55:12.883Z,964.84
2016-12-25T11:56:12.227Z,964.90
2016-12-25T11:57:15.939Z,964.93
2016-12-25T11:58:12.333Z,964.87
2016-12-25T11:59:13.205Z,964.93
2016-12-25T12:00:12.547Z,964.90
2016-12-25T12:01:12.895Z,964.80
2016-12-25T12:02:13.543Z,964.75
2016-12-25T12:03:12.909Z,964.71
2016-12-25T12:04:12.355Z,964.72
2016-12-25T12:05:13.277Z,964.72
2016-12-25T12:06:15.029Z,964.65
2016-12-25T12:07:12.490Z,964.75
2016-12-25T12:08:14.030Z,964.71
2016-12-25T12:09:12.406Z,964.75
2016-12-25T12:10:12.910Z,964.77
2016-12-25T12:11:11.528Z,964.74
2016-12-25T12:12:13.309Z,964.72
2016-12-25T12:13:12.790Z,964.71
2016-12-25T12:14:12.657Z,964.74
2016-12-25T12:15:12.152Z,964.63
2016-12-25T12:16:12.624Z,964.55
2016-12-25T12:17:13.472Z,964.59
2016-12-25T12:18:13.258Z,964.53
2016-12-25T12:19:13.005Z,964.55
2016-12-25T12:20:15.674Z,964.52
2016-12-25T12:21:13.191Z,964.46
2016-12-25T12:22:14.045Z,964.42
2016-12-25T12:23:13.852Z,964.34
2016-12-25T12:24:12.319Z,964.32
2016-12-25T12:25:14.099Z,964.34
2016-12-25T12:26:13.095Z,964.35
2016-12-25T12:27:12.624Z,964.25
2016-12-25T12:28:13.072Z,964.29